Time;durP1;ratioP1;P1;durP2;ratioP2;P2;SDS_P1;SDS_P2;PMS_P1;PMS_P2;Temp;Humidity;BMP_temperature;BMP_pressure;BME280_temperature;BME280_humidity;BME280_pressure;Samples;Min_cycle;Max_cycle;Signal;HPM_P1;HPM_P2
2022/11/30 00:00:41;;;;;;;1999.90;999.90;;;5.50;99.90;;;;;;5091774;28;20482;-66
2022/11/30 00:03:08;;;;;;;1999.90;999.90;;;5.50;99.90;;;;;;5095334;28;20492;-65
2022/11/30 00:05:35;;;;;;;1999.90;999.90;;;5.50;99.90;;;;;;5095419;28;20464;-65
2022/11/30 00:08:01;;;;;;;1999.90;999.90;;;5.50;99.90;;;;;;5090317;28;20559;-67
2022/11/30 00:10:28;;;;;;;1999.90;999.90;;;5.50;99.90;;;;;;5092291;28;20464;-68
2022/11/30 00:12:55;;;;;;;1999.90;999.90;;;5.50;99.90;;;;;;5093617;28;20480;-67
2022/11/30 00:15:23;;;;;;;1999.90;999.90;;;5.50;99.90;;;;;;5096825;28;20469;-67
2022/11/30 00:17:50;;;;;;;1999.90;999.90;;;5.50;99.90;;;;;;5095022;28;20469;-67
2022/11/30 00:20:16;;;;;;;1999.90;999.90;;;5.70;99.90;;;;;;5092002;28;20463;-66
2022/11/30 00:22:43;;;;;;;1999.90;999.90;;;5.60;99.90;;;;;;5096067;28;20487;-67
2022/11/30 00:25:10;;;;;;;1999.90;999.90;;;5.60;99.90;;;;;;5094759;28;20467;-67
2022/11/30 00:27:37;;;;;;;1999.90;999.90;;;5.60;99.90;;;;;;5096746;28;20858;-67
2022/11/30 00:30:05;;;;;;;1999.90;999.90;;;5.60;99.90;;;;;;5090090;28;20460;-67
2022/11/30 00:32:34;;;;;;;1999.90;999.90;;;5.60;99.90;;;;;;5098660;28;20455;-66
2022/11/30 00:35:01;;;;;;;1999.90;999.90;;;5.60;99.90;;;;;;5089870;28;20835;-67
2022/11/30 00:37:28;;;;;;;1999.90;999.90;;;5.60;99.90;;;;;;5100587;28;20466;-67
2022/11/30 00:39:54;;;;;;;1999.90;999.90;;;5.50;99.90;;;;;;5092056;28;20459;-67
2022/11/30 00:42:21;;;;;;;1999.90;999.90;;;5.50;99.90;;;;;;5099744;28;20486;-67
2022/11/30 00:44:48;;;;;;;1999.90;999.90;;;5.50;99.90;;;;;;5094005;28;20652;-67
2022/11/30 00:47:15;;;;;;;1999.90;999.90;;;5.60;99.90;;;;;;5101914;28;20456;-67
2022/11/30 00:49:43;;;;;;;1999.90;999.90;;;5.80;99.90;;;;;;5095075;28;20459;-67
2022/11/30 00:52:09;;;;;;;1999.90;999.90;;;5.50;99.90;;;;;;5100827;28;20967;-67
2022/11/30 00:54:36;;;;;;;1999.90;999.90;;;5.50;99.90;;;;;;5102075;28;20479;-66
2022/11/30 00:57:03;;;;;;;1999.90;999.90;;;5.50;99.90;;;;;;5100282;28;20452;-67
2022/11/30 00:59:30;;;;;;;1999.90;999.90;;;5.50;99.90;;;;;;5100129;28;20459;-68
2022/11/30 01:01:56;;;;;;;1999.90;999.90;;;5.50;99.90;;;;;;5096411;28;20477;-67
2022/11/30 01:04:23;;;;;;;1999.90;999.90;;;5.40;99.90;;;;;;5095309;28;20482;-65
2022/11/30 01:06:51;;;;;;;1999.90;999.90;;;5.80;99.90;;;;;;5093164;28;20986;-67
2022/11/30 01:09:18;;;;;;;1999.90;999.90;;;5.50;99.90;;;;;;5098169;28;20483;-67
2022/11/30 01:11:45;;;;;;;1999.90;999.90;;;5.60;99.90;;;;;;5098961;28;20844;-67
2022/11/30 01:14:11;;;;;;;1999.90;999.90;;;5.60;99.90;;;;;;5098430;28;20618;-67
2022/11/30 01:16:38;;;;;;;1999.90;999.90;;;5.60;99.90;;;;;;5099047;28;20460;-65
2022/11/30 01:19:05;;;;;;;1999.90;999.90;;;5.50;99.90;;;;;;5094030;28;20449;-67
2022/11/30 01:21:32;;;;;;;1999.90;999.90;;;5.60;99.90;;;;;;5103080;28;20451;-67
2022/11/30 01:24:00;;;;;;;1999.90;999.90;;;5.60;99.90;;;;;;5098435;28;20534;-67
2022/11/30 01:26:27;;;;;;;1999.90;999.90;;;5.50;99.90;;;;;;5094430;28;20459;-67
2022/11/30 01:28:55;;;;;;;1999.90;999.90;;;5.50;99.90;;;;;;5095683;28;20465;-68
2022/11/30 01:31:23;;;;;;;1999.90;999.90;;;5.50;99.90;;;;;;5099900;28;20459;-68
2022/11/30 01:33:51;;;;;;;1999.90;999.90;;;5.50;99.90;;;;;;5095949;28;20502;-68
2022/11/30 01:36:21;;;;;;;1999.90;999.90;;;5.50;99.90;;;;;;5097237;28;20464;-66
2022/11/30 01:38:49;;;;;;;1999.90;999.90;;;5.50;99.90;;;;;;5099807;28;20985;-67
2022/11/30 01:41:21;;;;;;;1999.90;999.90;;;5.50;99.90;;;;;;5100919;28;20456;-67
2022/11/30 01:43:50;;;;;;;1999.90;999.90;;;5.50;99.90;;;;;;5100018;27;20528;-67
2022/11/30 01:46:36;;;;;;;1999.90;999.90;;;5.40;99.90;;;;;;5094068;28;20943;-67
2022/11/30 01:49:10;;;;;;;1999.90;999.90;;;5.40;99.90;;;;;;5096237;28;20457;-67
2022/11/30 01:51:40;;;;;;;1999.90;999.90;;;5.50;99.90;;;;;;5101886;28;20951;-66
2022/11/30 01:54:11;;;;;;;1999.90;999.90;;;5.50;99.90;;;;;;5093564;28;20476;-67
2022/11/30 01:56:44;;;;;;;1999.90;999.90;;;5.50;99.90;;;;;;5100725;28;20459;-65
2022/11/30 01:59:12;;;;;;;1999.90;999.90;;;5.50;99.90;;;;;;5090066;28;20456;-67
2022/11/30 02:01:38;;;;;;;1999.90;999.90;;;5.50;99.90;;;;;;5096138;28;20466;-68
2022/11/30 02:04:09;;;;;;;1999.90;999.90;;;5.50;99.90;;;;;;5101593;28;20487;-67
2022/11/30 02:06:36;;;;;;;1999.90;999.90;;;5.40;99.90;;;;;;5095681;28;20453;-66
2022/11/30 02:09:03;;;;;;;1999.90;999.90;;;5.50;99.90;;;;;;5098237;28;20467;-67
2022/11/30 02:11:30;;;;;;;1999.90;999.90;;;5.60;99.90;;;;;;5102634;28;20455;-67
2022/11/30 02:14:14;;;;;;;1999.90;999.90;;;5.60;99.90;;;;;;5099187;28;20477;-67
2022/11/30 02:16:49;;;;;;;1999.90;999.90;;;5.60;99.90;;;;;;5094524;28;21033;-66
2022/11/30 02:19:54;;;;;;;1999.90;999.90;;;5.60;99.90;;;;;;5094675;28;20963;-67
2022/11/30 02:22:35;;;;;;;1999.90;999.90;;;5.60;99.90;;;;;;5082670;28;20479;-67
2022/11/30 02:25:10;;;;;;;1999.90;999.90;;;5.60;99.90;;;;;;5097593;28;20961;-68
2022/11/30 02:27:52;;;;;;;1999.90;999.90;;;5.70;99.90;;;;;;5102522;28;20465;-66
2022/11/30 02:30:22;;;;;;;1999.90;999.90;;;5.70;99.90;;;;;;5096167;28;20475;-68
2022/11/30 02:32:55;;;;;;;1999.90;999.90;;;5.70;99.90;;;;;;5097322;28;20476;-67
2022/11/30 02:35:26;;;;;;;1999.90;999.90;;;5.70;99.90;;;;;;5092972;28;20455;-67
2022/11/30 02:37:54;;;;;;;1999.90;999.90;;;5.70;99.90;;;;;;5099303;28;20832;-67
2022/11/30 02:40:22;;;;;;;1999.90;999.90;;;5.70;99.90;;;;;;5109613;28;20456;-67
2022/11/30 02:42:50;;;;;;;1999.90;999.90;;;5.60;99.90;;;;;;5108213;28;20483;-67
2022/11/30 02:45:22;;;;;;;1999.90;999.90;;;5.70;99.90;;;;;;5110981;28;20452;-67
2022/11/30 02:47:57;;;;;;;1999.90;999.90;;;5.70;99.90;;;;;;5110548;28;20463;-67
2022/11/30 02:50:30;;;;;;;1999.90;999.90;;;5.70;99.90;;;;;;5116988;28;20447;-68
2022/11/30 02:52:57;;;;;;;1999.90;999.90;;;5.70;99.90;;;;;;5109149;28;20830;-66
2022/11/30 02:55:24;;;;;;;1999.90;999.90;;;5.70;99.90;;;;;;5103389;28;20451;-68
2022/11/30 02:57:51;;;;;;;1999.90;999.90;;;5.70;99.90;;;;;;5100778;28;20455;-67
2022/11/30 03:00:20;;;;;;;1999.90;999.90;;;5.70;99.90;;;;;;5093862;28;20457;-67
2022/11/30 03:02:47;;;;;;;1999.90;999.90;;;5.70;99.90;;;;;;5102301;28;20483;-67
2022/11/30 03:05:14;;;;;;;1999.90;999.90;;;5.70;99.90;;;;;;5101000;28;20460;-67
2022/11/30 03:07:40;;;;;;;1999.90;999.90;;;5.70;99.90;;;;;;5102077;28;20467;-66
2022/11/30 03:10:09;;;;;;;1999.90;999.90;;;5.70;99.90;;;;;;5097395;28;20854;-68
2022/11/30 03:12:35;;;;;;;1999.90;999.90;;;5.60;99.90;;;;;;5102707;28;20448;-68
2022/11/30 03:15:02;;;;;;;1999.90;999.90;;;5.60;99.90;;;;;;5098378;28;20464;-67
2022/11/30 03:17:31;;;;;;;1999.90;999.90;;;5.60;99.90;;;;;;5104150;28;20478;-67
2022/11/30 03:19:57;;;;;;;1999.90;999.90;;;5.90;99.90;;;;;;5091382;28;20467;-68
2022/11/30 03:22:24;;;;;;;1999.90;999.90;;;5.70;99.90;;;;;;5099507;28;20502;-66
2022/11/30 03:24:51;;;;;;;1999.90;999.90;;;5.70;99.90;;;;;;5097749;28;20460;-66
2022/11/30 03:27:18;;;;;;;1999.90;999.90;;;5.70;99.90;;;;;;5096781;28;20487;-67
2022/11/30 03:29:45;;;;;;;1999.90;999.90;;;5.60;99.90;;;;;;5101508;28;20471;-67
2022/11/30 03:32:11;;;;;;;1999.90;999.90;;;5.70;99.90;;;;;;5095577;28;20457;-67
2022/11/30 03:34:40;;;;;;;1999.90;999.90;;;5.60;99.90;;;;;;5102190;28;20561;-67
2022/11/30 03:37:06;;;;;;;1999.90;999.90;;;5.70;99.90;;;;;;5098636;28;20544;-67
2022/11/30 03:39:33;;;;;;;1999.90;999.90;;;5.70;99.90;;;;;;5097931;28;20467;-67
2022/11/30 03:42:00;;;;;;;1999.90;999.90;;;5.70;99.90;;;;;;5096008;28;20471;-66
2022/11/30 03:44:28;;;;;;;1999.90;999.90;;;5.90;99.90;;;;;;5096541;28;20472;-67
2022/11/30 03:46:55;;;;;;;1999.90;999.90;;;5.80;99.90;;;;;;5093124;28;20456;-68
2022/11/30 03:49:22;;;;;;;1999.90;999.90;;;5.80;99.90;;;;;;5103021;28;20460;-66
2022/11/30 03:51:50;;;;;;;1999.90;999.90;;;5.70;99.90;;;;;;5094627;28;20489;-67
2022/11/30 03:54:16;;;;;;;1999.90;999.90;;;5.70;99.90;;;;;;5101190;28;20473;-68
2022/11/30 03:56:43;;;;;;;1999.90;999.90;;;5.70;99.90;;;;;;5102585;28;20985;-66
2022/11/30 03:59:10;;;;;;;1999.90;999.90;;;5.70;99.90;;;;;;5100115;28;20458;-66
2022/11/30 04:01:39;;;;;;;1999.90;999.90;;;5.70;99.90;;;;;;5100365;28;20489;-67
2022/11/30 04:04:06;;;;;;;1999.90;999.90;;;5.70;99.90;;;;;;5098977;28;20588;-67
2022/11/30 04:06:34;;;;;;;1999.90;999.90;;;5.70;99.90;;;;;;5101592;28;20456;-64
2022/11/30 04:09:02;;;;;;;1999.90;999.90;;;5.70;99.90;;;;;;5097638;28;20468;-66
2022/11/30 04:11:28;;;;;;;1999.90;999.90;;;5.70;99.90;;;;;;5095627;28;20468;-67
2022/11/30 04:13:55;;;;;;;1999.90;999.90;;;5.70;99.90;;;;;;5086234;28;20477;-67
2022/11/30 04:16:22;;;;;;;1999.90;999.90;;;5.60;99.90;;;;;;5088979;28;20456;-67
2022/11/30 04:18:49;;;;;;;1999.90;999.90;;;5.60;99.90;;;;;;5086384;28;20467;-65
2022/11/30 04:21:16;;;;;;;1999.90;999.90;;;5.60;99.90;;;;;;5088448;28;20464;-66
2022/11/30 04:23:42;;;;;;;1999.90;999.90;;;5.60;99.90;;;;;;5090689;28;20484;-68
2022/11/30 04:26:13;;;;;;;1999.90;999.90;;;5.60;99.90;;;;;;5089343;28;20460;-65
2022/11/30 04:28:40;;;;;;;1999.90;999.90;;;5.70;99.90;;;;;;5093745;28;20468;-66
2022/11/30 04:31:08;;;;;;;1999.90;999.90;;;5.60;99.90;;;;;;5090540;28;20465;-68
2022/11/30 04:33:35;;;;;;;1999.90;999.90;;;5.70;99.90;;;;;;5091861;28;20504;-67
2022/11/30 04:36:04;;;;;;;1999.90;999.90;;;5.70;99.90;;;;;;5090453;28;20460;-68
2022/11/30 04:38:32;;;;;;;1999.90;999.90;;;5.70;99.90;;;;;;5088438;28;20971;-65
2022/11/30 04:40:59;;;;;;;1999.90;999.90;;;5.70;99.90;;;;;;5086915;28;20945;-65
2022/11/30 04:43:27;;;;;;;1999.90;999.90;;;5.70;99.90;;;;;;5091639;28;20484;-67
2022/11/30 04:45:54;;;;;;;1999.90;999.90;;;5.60;99.90;;;;;;5090574;28;20994;-68
2022/11/30 04:48:21;;;;;;;1999.90;999.90;;;5.70;99.90;;;;;;5092004;28;20982;-67
2022/11/30 04:50:48;;;;;;;1999.90;999.90;;;5.60;99.90;;;;;;5089997;28;20471;-66
2022/11/30 04:53:15;;;;;;;1999.90;999.90;;;5.60;99.90;;;;;;5090677;28;21019;-67
2022/11/30 04:55:41;;;;;;;1999.90;999.90;;;5.60;99.90;;;;;;5091898;28;20471;-67
2022/11/30 04:58:08;;;;;;;1999.90;999.90;;;5.70;99.90;;;;;;5090117;28;20461;-66
2022/11/30 05:00:37;;;;;;;1999.90;999.90;;;5.70;99.90;;;;;;5090528;28;20456;-67
2022/11/30 05:03:04;;;;;;;1999.90;999.90;;;5.70;99.90;;;;;;5091214;28;20488;-67
2022/11/30 05:05:31;;;;;;;1999.90;999.90;;;5.70;99.90;;;;;;5086076;28;20467;-67
2022/11/30 05:07:59;;;;;;;1999.90;999.90;;;5.70;99.90;;;;;;5091832;28;20457;-66
2022/11/30 05:10:27;;;;;;;1999.90;999.90;;;5.70;99.90;;;;;;5090672;28;20453;-68
2022/11/30 05:12:54;;;;;;;1999.90;999.90;;;5.70;99.90;;;;;;5090816;28;20483;-65
2022/11/30 05:15:21;;;;;;;1999.90;999.90;;;5.60;99.90;;;;;;5089966;28;20465;-67
2022/11/30 05:17:49;;;;;;;1999.90;999.90;;;5.60;99.90;;;;;;5091430;28;20468;-68
2022/11/30 05:20:16;;;;;;;1999.90;999.90;;;5.60;99.90;;;;;;5087941;28;20871;-67
2022/11/30 05:22:43;;;;;;;1999.90;999.90;;;5.60;99.90;;;;;;5090530;28;20855;-68
2022/11/30 05:25:10;;;;;;;1999.90;999.90;;;5.70;99.90;;;;;;5087885;28;20462;-66
2022/11/30 05:27:37;;;;;;;1999.90;999.90;;;5.70;99.90;;;;;;5092415;28;20471;-66
2022/11/30 05:30:05;;;;;;;1999.90;999.90;;;5.70;99.90;;;;;;5089711;28;20471;-67
2022/11/30 05:32:32;;;;;;;1999.90;999.90;;;5.70;99.90;;;;;;5091459;28;20460;-67
2022/11/30 05:35:00;;;;;;;1999.90;999.90;;;5.70;99.90;;;;;;5090452;28;20482;-67
2022/11/30 05:37:27;;;;;;;1999.90;999.90;;;5.70;99.90;;;;;;5090235;28;20964;-67
2022/11/30 05:39:54;;;;;;;1999.90;999.90;;;5.70;99.90;;;;;;5088680;28;20832;-67
2022/11/30 05:42:20;;;;;;;1999.90;999.90;;;5.70;99.90;;;;;;5090561;28;21752;-67
2022/11/30 05:44:47;;;;;;;1999.90;999.90;;;5.70;99.90;;;;;;5090576;28;21037;-67
2022/11/30 05:47:14;;;;;;;1999.90;999.90;;;5.70;99.90;;;;;;5090051;28;20851;-67
2022/11/30 05:49:41;;;;;;;1999.90;999.90;;;5.80;99.90;;;;;;5090424;28;20472;-66
2022/11/30 05:52:09;;;;;;;1999.90;999.90;;;5.70;99.90;;;;;;5090286;28;20461;-67
2022/11/30 05:54:36;;;;;;;1999.90;999.90;;;5.70;99.90;;;;;;5090628;28;20476;-67
2022/11/30 05:57:04;;;;;;;1999.90;999.90;;;5.70;99.90;;;;;;5089097;28;20467;-67
2022/11/30 05:59:30;;;;;;;1999.90;999.90;;;5.70;99.90;;;;;;5088924;28;21014;-67
2022/11/30 06:01:57;;;;;;;1999.90;999.90;;;5.70;99.90;;;;;;5090018;28;20464;-66
2022/11/30 06:04:24;;;;;;;1999.90;999.90;;;5.70;99.90;;;;;;5090521;28;21015;-66
2022/11/30 06:06:54;;;;;;;1999.90;999.90;;;5.70;99.90;;;;;;5092128;28;20464;-67
2022/11/30 06:09:22;;;;;;;1999.90;999.90;;;5.70;99.90;;;;;;5089879;28;20950;-66
2022/11/30 06:11:49;;;;;;;1999.90;999.90;;;5.60;99.90;;;;;;5090914;28;20460;-65
2022/11/30 06:14:16;;;;;;;1999.90;999.90;;;5.60;99.90;;;;;;5098741;28;20486;-67
2022/11/30 06:16:42;;;;;;;1999.90;999.90;;;5.70;99.90;;;;;;5106862;28;20936;-67
2022/11/30 06:19:09;;;;;;;1999.90;999.90;;;5.60;99.90;;;;;;5113817;28;20440;-67
2022/11/30 06:21:36;;;;;;;1999.90;999.90;;;5.60;99.90;;;;;;5101257;28;20487;-67
2022/11/30 06:24:03;;;;;;;1999.90;999.90;;;5.70;99.90;;;;;;5089383;28;20480;-67
2022/11/30 06:26:31;;;;;;;1999.90;999.90;;;5.60;99.90;;;;;;5102007;28;20440;-68
2022/11/30 06:28:58;;;;;;;1999.90;999.90;;;5.70;99.90;;;;;;5115891;28;20448;-68
2022/11/30 06:31:24;;;;;;;1999.90;999.90;;;5.70;99.90;;;;;;5094033;28;20455;-67
2022/11/30 06:33:51;;;;;;;1999.90;999.90;;;5.70;99.90;;;;;;5086773;28;20484;-67
2022/11/30 06:36:22;;;;;;;1999.90;999.90;;;5.60;99.90;;;;;;5087592;28;21004;-66
2022/11/30 06:38:49;;;;;;;1999.90;999.90;;;5.70;99.90;;;;;;5086650;28;20537;-67
2022/11/30 06:41:15;;;;;;;1999.90;999.90;;;5.60;99.90;;;;;;5103552;28;20485;-67
2022/11/30 06:43:44;;;;;;;1999.90;999.90;;;5.70;99.90;;;;;;5097975;28;20480;-67
2022/11/30 06:46:10;;;;;;;1999.90;999.90;;;5.70;99.90;;;;;;5091648;28;20444;-67
2022/11/30 06:48:37;;;;;;;1999.90;999.90;;;5.70;99.90;;;;;;5091967;28;20471;-67
2022/11/30 06:51:05;;;;;;;1999.90;999.90;;;5.70;99.90;;;;;;5099581;28;20459;-67
2022/11/30 06:53:32;;;;;;;1999.90;999.90;;;5.70;99.90;;;;;;5105275;28;20477;-67
2022/11/30 06:55:59;;;;;;;1999.90;999.90;;;5.70;99.90;;;;;;5111695;28;20436;-67
2022/11/30 06:58:26;;;;;;;1999.90;999.90;;;5.70;99.90;;;;;;5112793;28;20435;-66
2022/11/30 07:00:54;;;;;;;1999.90;999.90;;;5.80;99.90;;;;;;5094821;28;20463;-67
2022/11/30 07:03:20;;;;;;;1999.90;999.90;;;5.80;99.90;;;;;;5086988;28;20572;-68
2022/11/30 07:05:47;;;;;;;1999.90;999.90;;;5.80;99.90;;;;;;5082712;28;20472;-65
2022/11/30 07:08:16;;;;;;;1999.90;999.90;;;5.80;99.90;;;;;;5083053;28;20463;-67
2022/11/30 07:10:44;;;;;;;1999.90;999.90;;;5.80;99.90;;;;;;5082848;28;20459;-68
2022/11/30 07:13:12;;;;;;;1999.90;999.90;;;5.70;99.90;;;;;;5086515;28;21072;-68
2022/11/30 07:15:39;;;;;;;1999.90;999.90;;;5.70;99.90;;;;;;5087030;28;20980;-67
2022/11/30 07:18:07;;;;;;;1999.90;999.90;;;5.70;99.90;;;;;;5086282;28;20983;-66
2022/11/30 07:20:35;;;;;;;1999.90;999.90;;;5.70;99.90;;;;;;5086824;28;20452;-66
2022/11/30 07:26:05;;;;;;;1999.90;999.90;;;5.70;99.90;;;;;;5090789;28;21053;-68
2022/11/30 07:26:08;;;;;;;1999.90;999.90;;;5.70;99.90;;;;;;5092372;28;20946;-68
2022/11/30 07:28:36;;;;;;;1999.90;999.90;;;5.70;99.90;;;;;;5093457;28;20538;-66
2022/11/30 07:31:13;;;;;;;1999.90;999.90;;;5.70;99.90;;;;;;5102102;28;20440;-67
2022/11/30 07:33:42;;;;;;;1999.90;999.90;;;5.80;99.90;;;;;;5112227;28;20459;-67
2022/11/30 07:36:09;;;;;;;1999.90;999.90;;;5.80;99.90;;;;;;5091685;28;20460;-67
2022/11/30 07:38:36;;;;;;;1999.90;999.90;;;5.80;99.90;;;;;;5093853;28;20478;-66
2022/11/30 07:41:03;;;;;;;1999.90;999.90;;;5.80;99.90;;;;;;5096798;28;20463;-68
2022/11/30 07:43:29;;;;;;;1999.90;999.90;;;5.80;99.90;;;;;;5099921;28;20480;-67
2022/11/30 07:45:56;;;;;;;1999.90;999.90;;;5.80;99.90;;;;;;5098015;28;20464;-68
2022/11/30 07:48:23;;;;;;;1999.90;999.90;;;5.80;99.90;;;;;;5103484;28;20462;-67
2022/11/30 07:50:51;;;;;;;1999.90;999.90;;;5.90;99.90;;;;;;5112452;28;20439;-67
2022/11/30 07:53:18;;;;;;;1999.90;999.90;;;5.90;99.90;;;;;;5111935;28;20476;-67
2022/11/30 07:55:45;;;;;;;1999.90;999.90;;;5.90;99.90;;;;;;5095192;28;20463;-67
2022/11/30 07:58:12;;;;;;;1999.90;999.90;;;5.90;99.90;;;;;;5098361;28;20467;-67
2022/11/30 08:00:39;;;;;;;1999.90;999.90;;;5.80;99.90;;;;;;5103666;28;20513;-68
2022/11/30 08:03:06;;;;;;;1999.90;999.90;;;5.80;99.90;;;;;;5113197;28;20463;-67
2022/11/30 08:05:32;;;;;;;1999.90;999.90;;;5.80;99.90;;;;;;5109502;28;20454;-67
2022/11/30 08:08:00;;;;;;;1999.90;999.90;;;5.80;99.90;;;;;;5106220;27;20440;-67
2022/11/30 08:10:27;;;;;;;1999.90;999.90;;;5.80;99.90;;;;;;5116237;28;20435;-68
2022/11/30 08:12:54;;;;;;;1999.90;999.90;;;5.80;99.90;;;;;;5115950;28;20459;-67
2022/11/30 08:15:21;;;;;;;1999.90;999.90;;;5.80;99.90;;;;;;5110432;28;20471;-67
2022/11/30 08:17:53;;;;;;;1999.90;999.90;;;5.80;99.90;;;;;;5107501;28;20443;-66
2022/11/30 08:20:19;;;;;;;1999.90;999.90;;;5.80;99.90;;;;;;5116271;28;20435;-67
2022/11/30 08:22:46;;;;;;;1999.90;999.90;;;5.90;99.90;;;;;;5115747;28;20463;-67
2022/11/30 08:25:14;;;;;;;1999.90;999.90;;;5.90;99.90;;;;;;5110166;28;20998;-67
2022/11/30 08:27:41;;;;;;;1999.90;999.90;;;5.90;99.90;;;;;;5107146;28;20435;-67
2022/11/30 08:30:09;;;;;;;1999.90;999.90;;;6.20;99.90;;;;;;5115950;28;20439;-67
2022/11/30 08:32:36;;;;;;;1999.90;999.90;;;5.90;99.90;;;;;;5115680;28;20450;-67
2022/11/30 08:35:03;;;;;;;1999.90;999.90;;;5.90;99.90;;;;;;5110618;28;20532;-67
2022/11/30 08:37:29;;;;;;;1999.90;999.90;;;6.00;99.90;;;;;;5107526;28;20460;-67
2022/11/30 08:39:56;;;;;;;1999.90;999.90;;;5.90;99.90;;;;;;5111633;28;20443;-67
2022/11/30 08:42:24;;;;;;;1999.90;999.90;;;5.90;99.90;;;;;;5115553;28;20453;-68
2022/11/30 08:44:51;;;;;;;1999.90;999.90;;;6.20;99.90;;;;;;5112399;28;20475;-67
2022/11/30 08:47:18;;;;;;;1999.90;999.90;;;6.00;99.90;;;;;;5105345;28;20444;-67
2022/11/30 08:49:44;;;;;;;1999.90;999.90;;;5.90;99.90;;;;;;5115211;28;20447;-67
2022/11/30 08:52:11;;;;;;;1999.90;999.90;;;6.00;99.90;;;;;;5115544;28;20439;-67
2022/11/30 08:54:41;;;;;;;1999.90;999.90;;;6.00;99.90;;;;;;5114593;27;20455;-67
2022/11/30 08:57:07;;;;;;;1999.90;999.90;;;6.10;99.90;;;;;;5103193;28;20456;-68
2022/11/30 08:59:36;;;;;;;1999.90;999.90;;;6.10;99.90;;;;;;5106586;28;20817;-67
2022/11/30 09:02:03;;;;;;;1999.90;999.90;;;6.00;99.90;;;;;;5115143;28;20443;-66
2022/11/30 09:04:29;;;;;;;1999.90;999.90;;;6.00;99.90;;;;;;5114219;28;20482;-67
2022/11/30 09:06:57;;;;;;;1999.90;999.90;;;6.10;99.90;;;;;;5103179;28;20460;-67
2022/11/30 09:09:24;;;;;;;1999.90;999.90;;;6.10;99.90;;;;;;5113883;28;20489;-67
2022/11/30 09:11:51;;;;;;;1999.90;999.90;;;6.20;99.90;;;;;;5114884;28;20447;-67
2022/11/30 09:14:18;;;;;;;1999.90;999.90;;;6.20;99.90;;;;;;5114157;28;20512;-66
2022/11/30 09:16:46;;;;;;;1999.90;999.90;;;6.20;99.90;;;;;;5104821;28;20460;-67
2022/11/30 09:19:13;;;;;;;1999.90;999.90;;;6.20;99.90;;;;;;5112827;28;20521;-67
2022/11/30 09:21:40;;;;;;;1999.90;999.90;;;6.20;99.90;;;;;;5100928;28;20490;-67
2022/11/30 09:24:07;;;;;;;1999.90;999.90;;;6.20;99.90;;;;;;5097948;28;20857;-68
2022/11/30 09:26:34;;;;;;;1999.90;999.90;;;6.20;99.90;;;;;;5095465;28;20928;-67
2022/11/30 09:29:01;;;;;;;1999.90;999.90;;;6.30;99.90;;;;;;5094249;28;20495;-68
2022/11/30 09:31:28;;;;;;;1999.90;999.90;;;6.30;99.90;;;;;;5100840;28;21010;-65
2022/11/30 09:33:58;;;;;;;1999.90;999.90;;;6.20;99.90;;;;;;5109910;28;20887;-68
2022/11/30 09:36:27;;;;;;;1999.90;999.90;;;6.30;99.90;;;;;;5113806;28;20814;-67
2022/11/30 09:38:54;;;;;;;1999.90;999.90;;;6.20;99.90;;;;;;5113974;28;20487;-67
2022/11/30 09:41:52;;;;;;;1999.90;999.90;;;6.20;99.90;;;;;;5104832;28;20464;-67
2022/11/30 09:44:25;;;;;;;1999.90;999.90;;;6.30;99.90;;;;;;5112587;28;20475;-67
2022/11/30 09:46:59;;;;;;;1999.90;999.90;;;6.30;99.90;;;;;;5114552;28;20432;-67
2022/11/30 09:49:30;;;;;;;1999.90;999.90;;;6.30;99.90;;;;;;5113421;28;20450;-66
2022/11/30 09:52:02;;;;;;;1999.90;999.90;;;6.30;99.90;;;;;;5098081;28;20440;-68
2022/11/30 09:54:36;;;;;;;1999.90;999.90;;;6.30;99.90;;;;;;5072757;28;20457;-68
2022/11/30 09:57:10;;;;;;;1999.90;999.90;;;6.30;99.90;;;;;;5073798;28;20434;-67
2022/11/30 09:59:38;;;;;;;1999.90;999.90;;;6.30;99.90;;;;;;5087518;28;20455;-68
2022/11/30 10:02:15;;;;;;;1999.90;999.90;;;6.40;99.90;;;;;;5108004;28;20459;-67
2022/11/30 10:04:43;;;;;;;1999.90;999.90;;;6.30;99.90;;;;;;5098245;28;21003;-67
2022/11/30 10:07:23;;;;;;;1999.90;999.90;;;6.30;99.90;;;;;;5092947;28;20464;-67
2022/11/30 10:09:59;;;;;;;1999.90;999.90;;;6.40;99.90;;;;;;5083021;28;20474;-68
2022/11/30 10:12:31;;;;;;;1999.90;999.90;;;6.40;99.90;;;;;;5092018;28;20463;-66
2022/11/30 10:15:29;;;;;;;1999.90;999.90;;;6.50;99.90;;;;;;5101606;28;20462;-66
2022/11/30 10:17:56;;;;;;;1999.90;999.90;;;6.40;99.90;;;;;;5082159;28;20459;-66
2022/11/30 10:21:00;;;;;;;1999.90;999.90;;;6.40;99.90;;;;;;5089112;28;20963;-66
2022/11/30 10:23:44;;;;;;;1999.90;999.90;;;6.50;99.90;;;;;;5056963;28;20476;-67
2022/11/30 10:26:14;;;;;;;1999.90;999.90;;;6.40;99.90;;;;;;5089168;28;20486;-68
2022/11/30 10:28:49;;;;;;;1999.90;999.90;;;6.50;99.90;;;;;;5085005;28;20465;-67
2022/11/30 10:31:17;;;;;;;1999.90;999.90;;;6.50;99.90;;;;;;5093152;28;20499;-67
2022/11/30 10:33:48;;;;;;;1999.90;999.90;;;6.60;99.90;;;;;;5091315;28;20484;-67
2022/11/30 10:36:24;;;;;;;1999.90;999.90;;;6.50;99.90;;;;;;5095799;28;20486;-66
2022/11/30 10:38:56;;;;;;;1999.90;999.90;;;6.70;99.90;;;;;;5091853;28;20467;-67
2022/11/30 10:41:28;;;;;;;1999.90;999.90;;;6.60;99.90;;;;;;5091008;28;20509;-67
2022/11/30 10:43:59;;;;;;;1999.90;999.90;;;6.60;99.90;;;;;;5090689;28;20480;-68
2022/11/30 10:46:31;;;;;;;1999.90;999.90;;;6.70;99.90;;;;;;5088697;28;20455;-66
2022/11/30 10:49:01;;;;;;;1999.90;999.90;;;6.70;99.90;;;;;;5090332;28;20472;-67
2022/11/30 10:51:31;;;;;;;1999.90;999.90;;;6.90;99.90;;;;;;5089196;28;20456;-68
2022/11/30 10:53:59;;;;;;;1999.90;999.90;;;7.00;99.90;;;;;;5085461;28;20495;-69
2022/11/30 10:56:26;;;;;;;1999.90;999.90;;;7.00;99.90;;;;;;5087731;28;20968;-67
2022/11/30 10:58:58;;;;;;;1999.90;999.90;;;7.10;99.90;;;;;;5087254;28;20470;-66
2022/11/30 11:01:33;;;;;;;1999.90;999.90;;;7.10;99.90;;;;;;5089568;28;20467;-69
2022/11/30 11:04:15;;;;;;;1999.90;999.90;;;7.10;99.90;;;;;;5089928;28;20479;-70
2022/11/30 11:06:47;;;;;;;1999.90;999.90;;;7.00;99.90;;;;;;5084120;28;20463;-69
2022/11/30 11:09:34;;;;;;;1999.90;999.90;;;7.10;99.90;;;;;;5085443;28;20456;-69
2022/11/30 11:12:02;;;;;;;1999.90;999.90;;;7.10;99.90;;;;;;5087895;28;20467;-69
2022/11/30 11:14:30;;;;;;;1999.90;999.90;;;7.20;99.90;;;;;;5090713;28;20477;-69
2022/11/30 11:16:59;;;;;;;1999.90;999.90;;;7.10;99.90;;;;;;5097754;28;20513;-69
2022/11/30 11:19:34;;;;;;;1999.90;999.90;;;7.10;99.90;;;;;;5090192;28;20457;-69
2022/11/30 11:22:05;;;;;;;1999.90;999.90;;;7.00;99.90;;;;;;5112534;27;20435;-69
2022/11/30 11:24:33;;;;;;;1999.90;999.90;;;6.90;99.90;;;;;;5111760;28;20491;-69
2022/11/30 11:27:00;;;;;;;1999.90;999.90;;;6.90;99.90;;;;;;5112361;28;20436;-69
2022/11/30 11:29:33;;;;;;;1999.90;999.90;;;6.90;99.90;;;;;;5112041;28;20435;-69
2022/11/30 11:32:23;;;;;;;1999.90;999.90;;;6.90;99.90;;;;;;5108008;28;20449;-69
2022/11/30 11:34:50;;;;;;;1999.90;999.90;;;6.90;99.90;;;;;;5091518;28;20467;-69
2022/11/30 11:37:25;;;;;;;1999.90;999.90;;;6.90;99.90;;;;;;5091898;28;20538;-69
2022/11/30 11:40:12;;;;;;;1999.90;999.90;;;6.90;99.90;;;;;;5092367;28;20463;-69
2022/11/30 11:42:46;;;;;;;1999.90;999.90;;;6.80;99.90;;;;;;5092236;28;20449;-66
2022/11/30 11:45:18;;;;;;;1999.90;999.90;;;6.80;99.90;;;;;;5091904;28;20460;-67
2022/11/30 11:47:45;;;;;;;1999.90;999.90;;;6.80;99.90;;;;;;5091841;28;21131;-67
2022/11/30 11:50:25;;;;;;;1999.90;999.90;;;7.00;99.90;;;;;;5097283;28;20445;-67
2022/11/30 11:53:14;;;;;;;1999.90;999.90;;;6.80;99.90;;;;;;5102582;28;20519;-68
2022/11/30 11:55:42;;;;;;;1999.90;999.90;;;6.80;99.90;;;;;;5100574;28;20815;-67
2022/11/30 11:58:16;;;;;;;1999.90;999.90;;;6.80;99.90;;;;;;5106139;28;20475;-68
2022/11/30 12:00:44;;;;;;;1999.90;999.90;;;6.80;99.90;;;;;;5123712;28;20504;-68
2022/11/30 12:03:17;;;;;;;1999.90;999.90;;;6.70;99.90;;;;;;5126031;28;20459;-68
2022/11/30 12:05:48;;;;;;;1999.90;999.90;;;6.70;99.90;;;;;;5123003;28;20479;-68
2022/11/30 12:08:25;;;;;;;1999.90;999.90;;;6.70;99.90;;;;;;5099854;28;20467;-68
2022/11/30 12:10:57;;;;;;;1999.90;999.90;;;6.60;99.90;;;;;;5096378;28;20448;-68
2022/11/30 12:13:31;;;;;;;1999.90;999.90;;;6.70;99.90;;;;;;5093499;28;20555;-65
2022/11/30 12:16:09;;;;;;;1999.90;999.90;;;6.60;99.90;;;;;;5093226;28;20462;-68
2022/11/30 12:18:45;;;;;;;1999.90;999.90;;;6.60;99.90;;;;;;5094162;28;20482;-68